sensor_id;sensor_type;location;lat;lon;timestamp;P1;P2;P0
72793;PMS5003;63436;26.334;50.194;2023-02-28T00:00:57;27;25;
72793;PMS5003;63436;26.334;50.194;2023-02-28T00:03:23;23;21;
72793;PMS5003;63436;26.334;50.194;2023-02-28T00:05:49;25;24;
72793;PMS5003;63436;26.334;50.194;2023-02-28T00:08:14;25;25;
72793;PMS5003;63436;26.334;50.194;2023-02-28T00:10:39;27;24;
72793;PMS5003;63436;26.334;50.194;2023-02-28T00:13:05;24;20;
72793;PMS5003;63436;26.334;50.194;2023-02-28T00:15:31;23;20;
72793;PMS5003;63436;26.334;50.194;2023-02-28T00:17:56;20;20;
72793;PMS5003;63436;26.334;50.194;2023-02-28T00:20:21;24;23;
72793;PMS5003;63436;26.334;50.194;2023-02-28T00:22:52;32;26;
72793;PMS5003;63436;26.334;50.194;2023-02-28T00:25:13;25;23;
72793;PMS5003;63436;26.334;50.194;2023-02-28T00:27:38;27;22;
72793;PMS5003;63436;26.334;50.194;2023-02-28T00:30:03;26;23;
72793;PMS5003;63436;26.334;50.194;2023-02-28T00:32:28;23;23;
72793;PMS5003;63436;26.334;50.194;2023-02-28T00:34:54;23;20;
72793;PMS5003;63436;26.334;50.194;2023-02-28T00:37:20;21;20;
72793;PMS5003;63436;26.334;50.194;2023-02-28T00:39:45;21;19;
72793;PMS5003;63436;26.334;50.194;2023-02-28T00:42:10;25;22;
72793;PMS5003;63436;26.334;50.194;2023-02-28T00:44:36;24;22;
72793;PMS5003;63436;26.334;50.194;2023-02-28T00:47:01;23;20;
72793;PMS5003;63436;26.334;50.194;2023-02-28T00:49:26;22;21;
72793;PMS5003;63436;26.334;50.194;2023-02-28T00:51:52;22;21;
72793;PMS5003;63436;26.334;50.194;2023-02-28T00:54:17;25;20;
72793;PMS5003;63436;26.334;50.194;2023-02-28T00:56:42;24;22;
72793;PMS5003;63436;26.334;50.194;2023-02-28T00:59:09;20;18;
72793;PMS5003;63436;26.334;50.194;2023-02-28T01:01:38;26;24;
72793;PMS5003;63436;26.334;50.194;2023-02-28T01:03:58;24;20;
72793;PMS5003;63436;26.334;50.194;2023-02-28T01:06:24;22;21;
72793;PMS5003;63436;26.334;50.194;2023-02-28T01:08:49;21;17;
72793;PMS5003;63436;26.334;50.194;2023-02-28T01:11:15;24;22;
72793;PMS5003;63436;26.334;50.194;2023-02-28T01:13:41;20;20;
72793;PMS5003;63436;26.334;50.194;2023-02-28T01:16:06;23;21;
72793;PMS5003;63436;26.334;50.194;2023-02-28T01:18:31;23;22;
72793;PMS5003;63436;26.334;50.194;2023-02-28T01:20:56;21;20;
72793;PMS5003;63436;26.334;50.194;2023-02-28T01:23:22;23;22;
72793;PMS5003;63436;26.334;50.194;2023-02-28T01:25:47;20;20;
72793;PMS5003;63436;26.334;50.194;2023-02-28T01:28:13;22;19;
72793;PMS5003;63436;26.334;50.194;2023-02-28T01:30:38;26;22;
72793;PMS5003;63436;26.334;50.194;2023-02-28T01:33:03;24;21;
72793;PMS5003;63436;26.334;50.194;2023-02-28T01:35:31;21;20;
72793;PMS5003;63436;26.334;50.194;2023-02-28T01:37:54;23;22;
72793;PMS5003;63436;26.334;50.194;2023-02-28T01:40:20;20;20;
72793;PMS5003;63436;26.334;50.194;2023-02-28T01:42:45;26;23;
72793;PMS5003;63436;26.334;50.194;2023-02-28T01:47:38;21;21;
72793;PMS5003;63436;26.334;50.194;2023-02-28T01:50:04;23;20;
72793;PMS5003;63436;26.334;50.194;2023-02-28T01:57:19;22;20;
72793;PMS5003;63436;26.334;50.194;2023-02-28T01:59:43;20;19;
72793;PMS5003;63436;26.334;50.194;2023-02-28T02:02:09;22;20;
72793;PMS5003;63436;26.334;50.194;2023-02-28T02:04:36;23;21;
72793;PMS5003;63436;26.334;50.194;2023-02-28T02:06:59;19;18;
72793;PMS5003;63436;26.334;50.194;2023-02-28T02:09:25;19;18;
72793;PMS5003;63436;26.334;50.194;2023-02-28T02:11:51;21;18;
72793;PMS5003;63436;26.334;50.194;2023-02-28T02:16:44;23;20;
72793;PMS5003;63436;26.334;50.194;2023-02-28T02:19:11;22;21;
72793;PMS5003;63436;26.334;50.194;2023-02-28T02:36:05;23;22;
72793;PMS5003;63436;26.334;50.194;2023-02-28T02:38:32;25;19;
72793;PMS5003;63436;26.334;50.194;2023-02-28T02:41:04;23;22;
72793;PMS5003;63436;26.334;50.194;2023-02-28T02:43:22;25;21;
72793;PMS5003;63436;26.334;50.194;2023-02-28T02:45:47;22;21;
72793;PMS5003;63436;26.334;50.194;2023-02-28T02:48:13;21;20;
72793;PMS5003;63436;26.334;50.194;2023-02-28T02:50:37;24;20;
72793;PMS5003;63436;26.334;50.194;2023-02-28T02:53:02;22;21;
72793;PMS5003;63436;26.334;50.194;2023-02-28T02:55:28;22;22;
72793;PMS5003;63436;26.334;50.194;2023-02-28T02:57:53;26;22;
72793;PMS5003;63436;26.334;50.194;2023-02-28T03:00:20;27;24;
72793;PMS5003;63436;26.334;50.194;2023-02-28T03:02:44;28;24;
72793;PMS5003;63436;26.334;50.194;2023-02-28T03:05:13;20;19;
72793;PMS5003;63436;26.334;50.194;2023-02-28T03:07:34;25;22;
72793;PMS5003;63436;26.334;50.194;2023-02-28T03:10:00;21;21;
72793;PMS5003;63436;26.334;50.194;2023-02-28T03:12:30;21;21;
72793;PMS5003;63436;26.334;50.194;2023-02-28T03:14:54;24;21;
72793;PMS5003;63436;26.334;50.194;2023-02-28T03:17:20;22;19;
72793;PMS5003;63436;26.334;50.194;2023-02-28T03:19:46;23;20;
72793;PMS5003;63436;26.334;50.194;2023-02-28T03:22:12;27;20;
72793;PMS5003;63436;26.334;50.194;2023-02-28T03:24:33;26;22;
72793;PMS5003;63436;26.334;50.194;2023-02-28T03:26:58;25;22;
72793;PMS5003;63436;26.334;50.194;2023-02-28T03:29:31;23;22;
72793;PMS5003;63436;26.334;50.194;2023-02-28T03:31:54;30;21;
72793;PMS5003;63436;26.334;50.194;2023-02-28T03:34:22;26;24;
72793;PMS5003;63436;26.334;50.194;2023-02-28T03:36:41;34;26;
72793;PMS5003;63436;26.334;50.194;2023-02-28T03:39:05;31;26;
72793;PMS5003;63436;26.334;50.194;2023-02-28T03:41:32;22;19;
72793;PMS5003;63436;26.334;50.194;2023-02-28T03:43:57;24;20;
72793;PMS5003;63436;26.334;50.194;2023-02-28T03:46:27;22;22;
72793;PMS5003;63436;26.334;50.194;2023-02-28T03:48:48;21;21;
72793;PMS5003;63436;26.334;50.194;2023-02-28T03:51:14;21;19;
72793;PMS5003;63436;26.334;50.194;2023-02-28T03:53:39;26;23;
72793;PMS5003;63436;26.334;50.194;2023-02-28T03:56:05;28;20;
72793;PMS5003;63436;26.334;50.194;2023-02-28T03:58:29;25;22;
72793;PMS5003;63436;26.334;50.194;2023-02-28T04:00:56;20;18;
72793;PMS5003;63436;26.334;50.194;2023-02-28T04:03:20;21;19;
72793;PMS5003;63436;26.334;50.194;2023-02-28T04:05:47;29;22;
72793;PMS5003;63436;26.334;50.194;2023-02-28T04:08:10;25;23;
72793;PMS5003;63436;26.334;50.194;2023-02-28T04:10:35;27;23;
72793;PMS5003;63436;26.334;50.194;2023-02-28T04:13:00;25;25;
72793;PMS5003;63436;26.334;50.194;2023-02-28T04:15:27;30;23;
72793;PMS5003;63436;26.334;50.194;2023-02-28T04:17:52;27;25;
72793;PMS5003;63436;26.334;50.194;2023-02-28T04:20:22;27;22;
72793;PMS5003;63436;26.334;50.194;2023-02-28T04:22:42;26;21;
72793;PMS5003;63436;26.334;50.194;2023-02-28T04:25:09;26;24;
72793;PMS5003;63436;26.334;50.194;2023-02-28T04:27:33;25;20;
72793;PMS5003;63436;26.334;50.194;2023-02-28T04:29:58;25;22;
72793;PMS5003;63436;26.334;50.194;2023-02-28T04:32:25;22;22;
72793;PMS5003;63436;26.334;50.194;2023-02-28T04:34:48;25;25;
72793;PMS5003;63436;26.334;50.194;2023-02-28T04:37:14;26;25;
72793;PMS5003;63436;26.334;50.194;2023-02-28T04:39:40;21;18;
72793;PMS5003;63436;26.334;50.194;2023-02-28T04:42:06;32;25;
72793;PMS5003;63436;26.334;50.194;2023-02-28T04:44:30;25;25;
72793;PMS5003;63436;26.334;50.194;2023-02-28T04:46:57;26;22;
72793;PMS5003;63436;26.334;50.194;2023-02-28T04:49:22;27;23;
72793;PMS5003;63436;26.334;50.194;2023-02-28T04:51:47;23;21;
72793;PMS5003;63436;26.334;50.194;2023-02-28T04:54:14;25;24;
72793;PMS5003;63436;26.334;50.194;2023-02-28T04:56:38;21;21;
72793;PMS5003;63436;26.334;50.194;2023-02-28T04:59:04;28;25;
72793;PMS5003;63436;26.334;50.194;2023-02-28T05:01:31;36;30;
72793;PMS5003;63436;26.334;50.194;2023-02-28T05:03:56;24;22;
72793;PMS5003;63436;26.334;50.194;2023-02-28T05:06:21;30;25;
72793;PMS5003;63436;26.334;50.194;2023-02-28T05:11:14;25;22;
72793;PMS5003;63436;26.334;50.194;2023-02-28T05:13:37;27;23;
72793;PMS5003;63436;26.334;50.194;2023-02-28T05:16:03;27;23;
72793;PMS5003;63436;26.334;50.194;2023-02-28T05:18:28;24;24;
72793;PMS5003;63436;26.334;50.194;2023-02-28T05:20:54;27;26;
72793;PMS5003;63436;26.334;50.194;2023-02-28T05:23:20;28;26;
72793;PMS5003;63436;26.334;50.194;2023-02-28T05:25:44;32;30;
72793;PMS5003;63436;26.334;50.194;2023-02-28T05:28:09;24;24;
72793;PMS5003;63436;26.334;50.194;2023-02-28T05:30:36;25;25;
72793;PMS5003;63436;26.334;50.194;2023-02-28T05:33:00;31;28;
72793;PMS5003;63436;26.334;50.194;2023-02-28T05:35:26;34;24;
72793;PMS5003;63436;26.334;50.194;2023-02-28T05:37:52;32;27;
72793;PMS5003;63436;26.334;50.194;2023-02-28T05:40:16;30;29;
72793;PMS5003;63436;26.334;50.194;2023-02-28T05:42:41;32;28;
72793;PMS5003;63436;26.334;50.194;2023-02-28T05:45:07;30;27;
72793;PMS5003;63436;26.334;50.194;2023-02-28T05:47:32;31;24;
72793;PMS5003;63436;26.334;50.194;2023-02-28T05:49:58;28;25;
72793;PMS5003;63436;26.334;50.194;2023-02-28T05:52:24;27;26;
72793;PMS5003;63436;26.334;50.194;2023-02-28T05:54:48;32;29;
72793;PMS5003;63436;26.334;50.194;2023-02-28T05:57:13;36;33;
72793;PMS5003;63436;26.334;50.194;2023-02-28T05:59:39;30;28;
72793;PMS5003;63436;26.334;50.194;2023-02-28T06:02:05;26;26;
72793;PMS5003;63436;26.334;50.194;2023-02-28T06:04:29;31;30;
72793;PMS5003;63436;26.334;50.194;2023-02-28T06:06:55;28;27;
72793;PMS5003;63436;26.334;50.194;2023-02-28T06:09:20;33;31;
72793;PMS5003;63436;26.334;50.194;2023-02-28T06:11:46;45;44;
72793;PMS5003;63436;26.334;50.194;2023-02-28T06:14:13;30;29;
72793;PMS5003;63436;26.334;50.194;2023-02-28T06:16:37;39;39;
72793;PMS5003;63436;26.334;50.194;2023-02-28T06:19:03;33;29;
72793;PMS5003;63436;26.334;50.194;2023-02-28T06:21:29;38;35;
72793;PMS5003;63436;26.334;50.194;2023-02-28T06:23:55;32;31;
72793;PMS5003;63436;26.334;50.194;2023-02-28T06:26:19;32;31;
72793;PMS5003;63436;26.334;50.194;2023-02-28T06:28:45;29;29;
72793;PMS5003;63436;26.334;50.194;2023-02-28T06:31:10;36;30;
72793;PMS5003;63436;26.334;50.194;2023-02-28T06:33:35;28;27;
72793;PMS5003;63436;26.334;50.194;2023-02-28T06:36:01;26;26;
72793;PMS5003;63436;26.334;50.194;2023-02-28T06:38:26;25;22;
72793;PMS5003;63436;26.334;50.194;2023-02-28T06:40:55;27;26;
72793;PMS5003;63436;26.334;50.194;2023-02-28T06:43:17;26;24;
72793;PMS5003;63436;26.334;50.194;2023-02-28T06:45:42;29;25;
72793;PMS5003;63436;26.334;50.194;2023-02-28T06:48:08;26;23;
72793;PMS5003;63436;26.334;50.194;2023-02-28T06:50:34;28;25;
72793;PMS5003;63436;26.334;50.194;2023-02-28T06:52:58;27;27;
72793;PMS5003;63436;26.334;50.194;2023-02-28T06:55:23;29;28;
72793;PMS5003;63436;26.334;50.194;2023-02-28T06:57:50;28;25;
72793;PMS5003;63436;26.334;50.194;2023-02-28T07:00:15;27;26;
72793;PMS5003;63436;26.334;50.194;2023-02-28T07:02:40;27;23;
72793;PMS5003;63436;26.334;50.194;2023-02-28T07:05:05;27;26;
72793;PMS5003;63436;26.334;50.194;2023-02-28T07:07:31;26;25;
72793;PMS5003;63436;26.334;50.194;2023-02-28T07:09:56;27;24;
72793;PMS5003;63436;26.334;50.194;2023-02-28T07:12:23;26;26;
72793;PMS5003;63436;26.334;50.194;2023-02-28T07:14:47;28;26;
72793;PMS5003;63436;26.334;50.194;2023-02-28T07:17:12;26;24;
72793;PMS5003;63436;26.334;50.194;2023-02-28T07:19:39;25;25;
72793;PMS5003;63436;26.334;50.194;2023-02-28T07:22:04;30;27;
72793;PMS5003;63436;26.334;50.194;2023-02-28T07:24:29;19;19;
72793;PMS5003;63436;26.334;50.194;2023-02-28T07:26:55;28;24;
72793;PMS5003;63436;26.334;50.194;2023-02-28T07:29:19;26;26;
72793;PMS5003;63436;26.334;50.194;2023-02-28T07:31:45;25;22;
72793;PMS5003;63436;26.334;50.194;2023-02-28T07:34:11;30;27;
72793;PMS5003;63436;26.334;50.194;2023-02-28T07:36:36;30;26;
72793;PMS5003;63436;26.334;50.194;2023-02-28T07:39:02;24;24;
72793;PMS5003;63436;26.334;50.194;2023-02-28T07:41:27;30;25;
72793;PMS5003;63436;26.334;50.194;2023-02-28T07:43:53;21;20;
72793;PMS5003;63436;26.334;50.194;2023-02-28T07:46:17;25;23;
72793;PMS5003;63436;26.334;50.194;2023-02-28T07:48:43;29;25;
72793;PMS5003;63436;26.334;50.194;2023-02-28T07:51:07;26;24;
72793;PMS5003;63436;26.334;50.194;2023-02-28T07:53:33;27;25;
72793;PMS5003;63436;26.334;50.194;2023-02-28T07:55:59;23;20;
72793;PMS5003;63436;26.334;50.194;2023-02-28T07:58:24;28;26;
72793;PMS5003;63436;26.334;50.194;2023-02-28T08:00:48;38;29;
72793;PMS5003;63436;26.334;50.194;2023-02-28T08:03:15;29;25;
72793;PMS5003;63436;26.334;50.194;2023-02-28T08:05:39;25;22;
72793;PMS5003;63436;26.334;50.194;2023-02-28T08:08:05;24;23;
72793;PMS5003;63436;26.334;50.194;2023-02-28T08:10:30;30;25;
72793;PMS5003;63436;26.334;50.194;2023-02-28T08:12:55;24;23;
72793;PMS5003;63436;26.334;50.194;2023-02-28T08:15:21;30;25;
72793;PMS5003;63436;26.334;50.194;2023-02-28T08:17:46;26;25;
72793;PMS5003;63436;26.334;50.194;2023-02-28T08:20:12;24;24;
72793;PMS5003;63436;26.334;50.194;2023-02-28T08:22:37;24;23;
72793;PMS5003;63436;26.334;50.194;2023-02-28T08:25:03;24;23;
72793;PMS5003;63436;26.334;50.194;2023-02-28T08:27:27;23;22;
72793;PMS5003;63436;26.334;50.194;2023-02-28T08:29:53;21;21;
72793;PMS5003;63436;26.334;50.194;2023-02-28T08:32:20;22;22;
72793;PMS5003;63436;26.334;50.194;2023-02-28T08:34:44;22;22;
72793;PMS5003;63436;26.334;50.194;2023-02-28T08:37:10;21;20;
72793;PMS5003;63436;26.334;50.194;2023-02-28T08:39:36;22;21;
72793;PMS5003;63436;26.334;50.194;2023-02-28T08:42:01;22;21;
72793;PMS5003;63436;26.334;50.194;2023-02-28T08:44:27;25;23;
72793;PMS5003;63436;26.334;50.194;2023-02-28T08:46:54;23;21;
72793;PMS5003;63436;26.334;50.194;2023-02-28T08:49:18;23;22;
72793;PMS5003;63436;26.334;50.194;2023-02-28T08:51:42;25;22;
72793;PMS5003;63436;26.334;50.194;2023-02-28T08:54:09;23;21;
72793;PMS5003;63436;26.334;50.194;2023-02-28T08:56:33;29;25;
72793;PMS5003;63436;26.334;50.194;2023-02-28T08:58:59;25;22;
72793;PMS5003;63436;26.334;50.194;2023-02-28T09:01:26;25;24;
72793;PMS5003;63436;26.334;50.194;2023-02-28T09:03:50;28;27;
72793;PMS5003;63436;26.334;50.194;2023-02-28T09:06:16;27;25;
72793;PMS5003;63436;26.334;50.194;2023-02-28T09:08:40;34;30;
72793;PMS5003;63436;26.334;50.194;2023-02-28T09:11:06;28;26;
72793;PMS5003;63436;26.334;50.194;2023-02-28T09:13:32;32;30;
72793;PMS5003;63436;26.334;50.194;2023-02-28T09:15:58;30;30;
72793;PMS5003;63436;26.334;50.194;2023-02-28T09:18:22;33;32;
72793;PMS5003;63436;26.334;50.194;2023-02-28T09:20:48;34;30;
72793;PMS5003;63436;26.334;50.194;2023-02-28T09:23:14;30;28;
72793;PMS5003;63436;26.334;50.194;2023-02-28T09:28:08;31;31;
72793;PMS5003;63436;26.334;50.194;2023-02-28T09:30:31;34;31;
72793;PMS5003;63436;26.334;50.194;2023-02-28T09:32:55;34;32;
72793;PMS5003;63436;26.334;50.194;2023-02-28T09:35:21;30;28;
72793;PMS5003;63436;26.334;50.194;2023-02-28T09:37:46;29;25;
72793;PMS5003;63436;26.334;50.194;2023-02-28T09:40:12;37;30;
72793;PMS5003;63436;26.334;50.194;2023-02-28T09:42:37;33;30;
72793;PMS5003;63436;26.334;50.194;2023-02-28T09:45:05;33;32;
72793;PMS5003;63436;26.334;50.194;2023-02-28T09:47:29;33;33;
72793;PMS5003;63436;26.334;50.194;2023-02-28T09:49:53;36;33;
72793;PMS5003;63436;26.334;50.194;2023-02-28T09:52:21;28;27;
72793;PMS5003;63436;26.334;50.194;2023-02-28T09:54:43;35;32;
72793;PMS5003;63436;26.334;50.194;2023-02-28T09:57:11;39;36;
72793;PMS5003;63436;26.334;50.194;2023-02-28T09:59:39;36;35;
72793;PMS5003;63436;26.334;50.194;2023-02-28T10:02:02;38;35;
72793;PMS5003;63436;26.334;50.194;2023-02-28T10:04:32;38;33;
72793;PMS5003;63436;26.334;50.194;2023-02-28T10:06:52;35;34;
72793;PMS5003;63436;26.334;50.194;2023-02-28T10:09:17;43;36;
72793;PMS5003;63436;26.334;50.194;2023-02-28T10:11:42;38;37;
72793;PMS5003;63436;26.334;50.194;2023-02-28T10:14:10;40;34;
72793;PMS5003;63436;26.334;50.194;2023-02-28T10:16:34;38;32;
72793;PMS5003;63436;26.334;50.194;2023-02-28T10:19:02;41;39;
72793;PMS5003;63436;26.334;50.194;2023-02-28T10:21:26;40;38;
72793;PMS5003;63436;26.334;50.194;2023-02-28T10:23:50;35;34;
72793;PMS5003;63436;26.334;50.194;2023-02-28T10:26:16;38;35;
72793;PMS5003;63436;26.334;50.194;2023-02-28T10:28:41;37;34;
72793;PMS5003;63436;26.334;50.194;2023-02-28T10:31:08;37;34;
72793;PMS5003;63436;26.334;50.194;2023-02-28T10:33:33;44;38;
72793;PMS5003;63436;26.334;50.194;2023-02-28T10:35:58;36;34;
72793;PMS5003;63436;26.334;50.194;2023-02-28T10:38:24;36;35;
72793;PMS5003;63436;26.334;50.194;2023-02-28T10:40:49;36;36;
72793;PMS5003;63436;26.334;50.194;2023-02-28T10:43:18;37;35;
72793;PMS5003;63436;26.334;50.194;2023-02-28T10:45:40;40;34;
72793;PMS5003;63436;26.334;50.194;2023-02-28T10:48:05;40;35;
72793;PMS5003;63436;26.334;50.194;2023-02-28T10:50:35;41;39;
72793;PMS5003;63436;26.334;50.194;2023-02-28T10:52:55;45;40;
72793;PMS5003;63436;26.334;50.194;2023-02-28T10:55:22;43;41;
72793;PMS5003;63436;26.334;50.194;2023-02-28T10:57:47;44;40;
72793;PMS5003;63436;26.334;50.194;2023-02-28T11:00:14;37;36;
72793;PMS5003;63436;26.334;50.194;2023-02-28T11:02:38;39;38;
72793;PMS5003;63436;26.334;50.194;2023-02-28T11:05:03;37;37;
72793;PMS5003;63436;26.334;50.194;2023-02-28T11:07:28;42;41;
72793;PMS5003;63436;26.334;50.194;2023-02-28T11:09:54;39;39;
72793;PMS5003;63436;26.334;50.194;2023-02-28T11:12:21;39;37;
72793;PMS5003;63436;26.334;50.194;2023-02-28T11:14:47;35;32;
72793;PMS5003;63436;26.334;50.194;2023-02-28T11:17:13;35;34;
72793;PMS5003;63436;26.334;50.194;2023-02-28T11:19:37;43;34;
72793;PMS5003;63436;26.334;50.194;2023-02-28T11:22:00;36;34;
72793;PMS5003;63436;26.334;50.194;2023-02-28T11:24:27;42;35;
72793;PMS5003;63436;26.334;50.194;2023-02-28T11:26:51;39;36;
72793;PMS5003;63436;26.334;50.194;2023-02-28T11:29:18;41;36;
72793;PMS5003;63436;26.334;50.194;2023-02-28T11:31:42;43;40;
72793;PMS5003;63436;26.334;50.194;2023-02-28T11:36:33;51;47;
72793;PMS5003;63436;26.334;50.194;2023-02-28T11:39:00;52;49;
72793;PMS5003;63436;26.334;50.194;2023-02-28T11:41:29;47;46;
72793;PMS5003;63436;26.334;50.194;2023-02-28T11:43:55;44;42;
72793;PMS5003;63436;26.334;50.194;2023-02-28T11:46:19;46;45;
72793;PMS5003;63436;26.334;50.194;2023-02-28T11:48:43;47;44;
72793;PMS5003;63436;26.334;50.194;2023-02-28T11:51:10;44;41;
72793;PMS5003;63436;26.334;50.194;2023-02-28T11:53:42;48;41;
72793;PMS5003;63436;26.334;50.194;2023-02-28T11:55:58;46;43;
72793;PMS5003;63436;26.334;50.194;2023-02-28T11:58:28;51;48;
72793;PMS5003;63436;26.334;50.194;2023-02-28T12:00:53;48;45;
72793;PMS5003;63436;26.334;50.194;2023-02-28T12:03:16;54;50;
72793;PMS5003;63436;26.334;50.194;2023-02-28T12:05:39;50;45;
72793;PMS5003;63436;26.334;50.194;2023-02-28T12:08:06;53;50;
72793;PMS5003;63436;26.334;50.194;2023-02-28T12:10:30;47;46;
72793;PMS5003;63436;26.334;50.194;2023-02-28T12:12:59;51;49;
72793;PMS5003;63436;26.334;50.194;2023-02-28T12:15:25;45;42;
72793;PMS5003;63436;26.334;50.194;2023-02-28T12:17:50;44;41;
72793;PMS5003;63436;26.334;50.194;2023-02-28T12:20:13;46;43;
72793;PMS5003;63436;26.334;50.194;2023-02-28T12:22:37;49;45;
72793;PMS5003;63436;26.334;50.194;2023-02-28T12:27:28;47;44;
72793;PMS5003;63436;26.334;50.194;2023-02-28T12:29:54;51;49;
72793;PMS5003;63436;26.334;50.194;2023-02-28T12:32:18;56;52;
72793;PMS5003;63436;26.334;50.194;2023-02-28T12:34:44;53;51;
72793;PMS5003;63436;26.334;50.194;2023-02-28T12:37:10;49;46;
72793;PMS5003;63436;26.334;50.194;2023-02-28T12:39:35;56;52;
72793;PMS5003;63436;26.334;50.194;2023-02-28T12:42:00;51;47;
72793;PMS5003;63436;26.334;50.194;2023-02-28T12:44:26;52;48;
72793;PMS5003;63436;26.334;50.194;2023-02-28T12:46:50;58;58;
72793;PMS5003;63436;26.334;50.194;2023-02-28T12:49:16;56;53;
72793;PMS5003;63436;26.334;50.194;2023-02-28T12:51:41;50;47;
72793;PMS5003;63436;26.334;50.194;2023-02-28T12:54:09;58;58;
72793;PMS5003;63436;26.334;50.194;2023-02-28T12:56:34;51;48;
72793;PMS5003;63436;26.334;50.194;2023-02-28T12:58:58;54;54;
72793;PMS5003;63436;26.334;50.194;2023-02-28T13:01:29;56;53;
72793;PMS5003;63436;26.334;50.194;2023-02-28T13:03:52;57;54;
72793;PMS5003;63436;26.334;50.194;2023-02-28T13:06:18;57;57;
72793;PMS5003;63436;26.334;50.194;2023-02-28T13:11:04;55;52;
72793;PMS5003;63436;26.334;50.194;2023-02-28T13:13:30;56;55;
72793;PMS5003;63436;26.334;50.194;2023-02-28T13:15:58;57;53;
72793;PMS5003;63436;26.334;50.194;2023-02-28T13:18:27;60;57;
72793;PMS5003;63436;26.334;50.194;2023-02-28T13:20:47;54;53;
72793;PMS5003;63436;26.334;50.194;2023-02-28T13:28:08;59;55;
72793;PMS5003;63436;26.334;50.194;2023-02-28T13:37:47;54;53;
72793;PMS5003;63436;26.334;50.194;2023-02-28T13:42:36;54;54;
72793;PMS5003;63436;26.334;50.194;2023-02-28T13:47:28;56;56;
72793;PMS5003;63436;26.334;50.194;2023-02-28T17:28:40;87;75;
72793;PMS5003;63436;26.334;50.194;2023-02-28T17:31:05;70;65;
72793;PMS5003;63436;26.334;50.194;2023-02-28T17:33:31;67;66;
72793;PMS5003;63436;26.334;50.194;2023-02-28T17:35:57;65;63;
72793;PMS5003;63436;26.334;50.194;2023-02-28T17:38:22;67;63;
72793;PMS5003;63436;26.334;50.194;2023-02-28T17:40:48;69;64;
72793;PMS5003;63436;26.334;50.194;2023-02-28T17:43:13;66;61;
72793;PMS5003;63436;26.334;50.194;2023-02-28T17:45:38;73;68;
72793;PMS5003;63436;26.334;50.194;2023-02-28T17:48:04;71;64;
72793;PMS5003;63436;26.334;50.194;2023-02-28T17:50:29;64;61;
72793;PMS5003;63436;26.334;50.194;2023-02-28T17:52:54;69;63;
72793;PMS5003;63436;26.334;50.194;2023-02-28T17:55:19;61;58;
72793;PMS5003;63436;26.334;50.194;2023-02-28T17:57:45;63;61;
72793;PMS5003;63436;26.334;50.194;2023-02-28T18:00:11;69;66;
72793;PMS5003;63436;26.334;50.194;2023-02-28T18:02:35;65;64;
72793;PMS5003;63436;26.334;50.194;2023-02-28T18:05:01;65;63;
72793;PMS5003;63436;26.334;50.194;2023-02-28T18:07:26;67;62;
72793;PMS5003;63436;26.334;50.194;2023-02-28T18:09:52;74;68;
72793;PMS5003;63436;26.334;50.194;2023-02-28T18:12:18;62;60;
72793;PMS5003;63436;26.334;50.194;2023-02-28T18:14:43;62;59;
72793;PMS5003;63436;26.334;50.194;2023-02-28T18:17:08;63;60;
72793;PMS5003;63436;26.334;50.194;2023-02-28T18:19:34;76;69;
72793;PMS5003;63436;26.334;50.194;2023-02-28T18:21:59;67;62;
72793;PMS5003;63436;26.334;50.194;2023-02-28T18:24:24;67;61;
72793;PMS5003;63436;26.334;50.194;2023-02-28T18:26:50;72;66;
72793;PMS5003;63436;26.334;50.194;2023-02-28T18:29:17;62;58;
72793;PMS5003;63436;26.334;50.194;2023-02-28T18:31:41;62;60;
72793;PMS5003;63436;26.334;50.194;2023-02-28T18:34:07;71;67;
72793;PMS5003;63436;26.334;50.194;2023-02-28T18:36:32;63;59;
72793;PMS5003;63436;26.334;50.194;2023-02-28T18:38:58;63;58;
72793;PMS5003;63436;26.334;50.194;2023-02-28T18:41:23;63;62;
72793;PMS5003;63436;26.334;50.194;2023-02-28T18:43:48;62;62;
72793;PMS5003;63436;26.334;50.194;2023-02-28T18:46:14;70;68;
72793;PMS5003;63436;26.334;50.194;2023-02-28T18:48:39;68;63;
72793;PMS5003;63436;26.334;50.194;2023-02-28T18:51:05;61;60;
72793;PMS5003;63436;26.334;50.194;2023-02-28T18:53:30;67;65;
72793;PMS5003;63436;26.334;50.194;2023-02-28T18:55:59;61;60;
72793;PMS5003;63436;26.334;50.194;2023-02-28T18:58:20;64;61;
72793;PMS5003;63436;26.334;50.194;2023-02-28T19:00:46;66;61;
72793;PMS5003;63436;26.334;50.194;2023-02-28T19:03:11;62;56;
72793;PMS5003;63436;26.334;50.194;2023-02-28T19:05:36;64;61;
72793;PMS5003;63436;26.334;50.194;2023-02-28T19:08:02;62;59;
72793;PMS5003;63436;26.334;50.194;2023-02-28T19:10:27;67;63;
72793;PMS5003;63436;26.334;50.194;2023-02-28T19:12:52;57;57;
72793;PMS5003;63436;26.334;50.194;2023-02-28T19:15:17;63;60;
72793;PMS5003;63436;26.334;50.194;2023-02-28T19:17:47;60;57;
72793;PMS5003;63436;26.334;50.194;2023-02-28T19:20:08;63;61;
72793;PMS5003;63436;26.334;50.194;2023-02-28T19:22:34;67;62;
72793;PMS5003;63436;26.334;50.194;2023-02-28T19:25:00;71;66;
72793;PMS5003;63436;26.334;50.194;2023-02-28T19:27:25;64;62;
72793;PMS5003;63436;26.334;50.194;2023-02-28T19:29:51;65;64;
72793;PMS5003;63436;26.334;50.194;2023-02-28T19:32:17;70;64;
72793;PMS5003;63436;26.334;50.194;2023-02-28T19:34:42;67;65;
72793;PMS5003;63436;26.334;50.194;2023-02-28T19:37:07;70;67;
72793;PMS5003;63436;26.334;50.194;2023-02-28T19:39:32;67;64;
72793;PMS5003;63436;26.334;50.194;2023-02-28T19:41:57;68;67;
72793;PMS5003;63436;26.334;50.194;2023-02-28T19:44:23;64;63;
72793;PMS5003;63436;26.334;50.194;2023-02-28T19:46:49;72;69;
72793;PMS5003;63436;26.334;50.194;2023-02-28T19:49:13;70;68;
72793;PMS5003;63436;26.334;50.194;2023-02-28T19:51:39;70;69;
72793;PMS5003;63436;26.334;50.194;2023-02-28T19:54:05;73;69;
72793;PMS5003;63436;26.334;50.194;2023-02-28T19:56:30;90;87;
72793;PMS5003;63436;26.334;50.194;2023-02-28T19:58:56;92;90;
72793;PMS5003;63436;26.334;50.194;2023-02-28T20:01:21;86;81;
72793;PMS5003;63436;26.334;50.194;2023-02-28T20:03:47;92;88;
72793;PMS5003;63436;26.334;50.194;2023-02-28T20:06:12;89;87;
72793;PMS5003;63436;26.334;50.194;2023-02-28T20:08:38;75;75;
72793;PMS5003;63436;26.334;50.194;2023-02-28T20:11:03;81;79;
72793;PMS5003;63436;26.334;50.194;2023-02-28T20:13:29;85;80;
72793;PMS5003;63436;26.334;50.194;2023-02-28T20:15:57;76;71;
72793;PMS5003;63436;26.334;50.194;2023-02-28T20:18:20;78;77;
72793;PMS5003;63436;26.334;50.194;2023-02-28T20:20:45;74;69;